createdAt,value
2019-04-29T00:00:53.059Z,21.17
2019-04-29T00:03:24.232Z,16.97
2019-04-29T00:05:55.369Z,18.33
2019-04-29T00:08:26.381Z,17.63
2019-04-29T00:10:57.403Z,17.80
2019-04-29T00:13:28.459Z,16.30
2019-04-29T00:16:12.710Z,16.20
2019-04-29T00:18:56.376Z,15.23
2019-04-29T00:21:27.479Z,15.57
2019-04-29T00:24:03.909Z,14.10
2019-04-29T00:26:31.195Z,14.27
2019-04-29T00:29:02.263Z,14.33
2019-04-29T00:31:33.420Z,13.07
2019-04-29T00:34:04.479Z,13.13
2019-04-29T00:36:42.248Z,12.23
2019-04-29T00:39:28.783Z,11.70
2019-04-29T00:42:16.377Z,12.70
2019-04-29T00:44:47.438Z,13.20
2019-04-29T00:47:18.551Z,12.87
2019-04-29T00:49:50.067Z,12.43
2019-04-29T00:52:21.147Z,11.97
2019-04-29T00:54:57.560Z,11.67
2019-04-29T00:57:47.548Z,11.67
2019-04-29T01:00:31.607Z,11.50
2019-04-29T01:03:02.984Z,11.03
2019-04-29T01:05:34.267Z,10.77
2019-04-29T01:08:05.580Z,10.87
2019-04-29T01:10:36.756Z,10.53
2019-04-29T01:13:07.951Z,10.20
2019-04-29T01:15:39.347Z,9.77
2019-04-29T01:18:11.059Z,9.73
2019-04-29T01:20:42.127Z,10.43
2019-04-29T01:23:13.216Z,9.67
2019-04-29T01:25:45.776Z,9.37
2019-04-29T01:28:35.110Z,8.93
2019-04-29T01:31:14.380Z,9.73
2019-04-29T01:33:46.305Z,10.13
2019-04-29T01:36:35.614Z,10.07
2019-04-29T01:39:10.259Z,10.77
2019-04-29T01:42:08.455Z,10.70
2019-04-29T01:44:39.427Z,10.57
2019-04-29T01:47:10.447Z,10.53
2019-04-29T01:49:41.457Z,10.40
2019-04-29T01:52:12.439Z,10.33
2019-04-29T01:54:43.503Z,11.13
2019-04-29T01:57:14.507Z,11.53
2019-04-29T01:59:44.858Z,12.20
2019-04-29T02:02:15.699Z,11.40
2019-04-29T02:04:46.023Z,11.90
2019-04-29T02:07:16.851Z,11.90
2019-04-29T02:09:57.483Z,12.83
2019-04-29T02:12:28.298Z,13.67
2019-04-29T02:14:59.295Z,13.90
2019-04-29T02:17:30.299Z,13.50
2019-04-29T02:20:01.357Z,14.93
2019-04-29T02:22:37.827Z,16.17
2019-04-29T02:25:16.556Z,15.50
2019-04-29T02:27:46.883Z,16.37
2019-04-29T02:30:47.328Z,16.37
2019-04-29T02:33:17.669Z,16.70
2019-04-29T02:35:48.461Z,17.87
2019-04-29T02:38:27.698Z,17.17
2019-04-29T02:41:08.956Z,16.93
2019-04-29T02:43:42.720Z,17.23
2019-04-29T02:46:13.763Z,17.87
2019-04-29T02:48:44.751Z,18.47
2019-04-29T02:51:34.624Z,18.60
2019-04-29T02:54:05.615Z,18.70
2019-04-29T02:56:36.831Z,20.00
2019-04-29T02:59:08.424Z,20.57
2019-04-29T03:01:46.989Z,19.70
2019-04-29T03:04:23.436Z,19.93
2019-04-29T03:06:54.295Z,20.67
2019-04-29T03:09:24.699Z,22.73
2019-04-29T03:11:56.244Z,21.67
2019-04-29T03:14:27.331Z,23.07
2019-04-29T03:16:58.756Z,22.93
2019-04-29T03:19:34.416Z,24.20
2019-04-29T03:22:06.896Z,24.87
2019-04-29T03:24:37.956Z,24.43
2019-04-29T03:27:08.959Z,25.13
2019-04-29T03:29:39.957Z,26.33
2019-04-29T03:32:10.944Z,26.00
2019-04-29T03:34:41.969Z,27.27
2019-04-29T03:37:12.964Z,29.10
2019-04-29T03:39:43.983Z,29.83
2019-04-29T03:42:14.971Z,30.37
2019-04-29T03:44:46.032Z,29.07
2019-04-29T03:47:19.039Z,31.27
2019-04-29T03:49:50.213Z,31.60
2019-04-29T03:52:22.272Z,31.63
2019-04-29T03:54:53.384Z,31.47
2019-04-29T03:57:24.372Z,29.10
2019-04-29T03:59:57.071Z,30.43
2019-04-29T04:02:37.800Z,30.80
2019-04-29T04:05:24.647Z,29.97
2019-04-29T04:08:14.602Z,29.90
2019-04-29T04:10:45.648Z,29.90
2019-04-29T04:13:16.632Z,29.13
2019-04-29T04:15:47.627Z,30.17
2019-04-29T04:18:25.404Z,31.20
2019-04-29T04:20:55.787Z,32.10
2019-04-29T04:23:26.574Z,28.60
2019-04-29T04:25:57.525Z,29.20
2019-04-29T04:28:28.521Z,30.37
2019-04-29T04:30:59.513Z,29.60
2019-04-29T04:33:30.505Z,30.00
2019-04-29T04:36:00.831Z,29.87
2019-04-29T04:38:31.645Z,31.37
2019-04-29T04:41:04.884Z,31.17
2019-04-29T04:43:35.453Z,31.10
2019-04-29T04:46:06.308Z,30.77
2019-04-29T04:48:37.524Z,30.83
2019-04-29T04:51:08.811Z,30.87
2019-04-29T04:53:39.965Z,30.30
2019-04-29T04:56:10.253Z,29.90
2019-04-29T04:58:41.153Z,29.70
2019-04-29T05:01:12.152Z,28.53
2019-04-29T05:03:43.171Z,28.87
2019-04-29T05:06:14.154Z,27.67
2019-04-29T05:08:45.267Z,29.63
2019-04-29T05:11:16.385Z,30.23
2019-04-29T05:13:47.644Z,30.30
2019-04-29T05:16:19.091Z,28.77
2019-04-29T05:18:49.419Z,30.00
2019-04-29T05:21:20.259Z,28.23
2019-04-29T05:23:51.260Z,27.57
2019-04-29T05:26:22.246Z,28.27
2019-04-29T05:28:53.576Z,28.73
2019-04-29T05:31:24.696Z,26.97
2019-04-29T05:33:55.695Z,28.30
2019-04-29T05:36:51.843Z,27.47
2019-04-29T05:39:29.658Z,27.60
2019-04-29T05:42:00.051Z,29.20
2019-04-29T05:44:52.576Z,27.67
2019-04-29T05:47:29.955Z,27.37
2019-04-29T05:50:18.725Z,28.37
2019-04-29T05:53:00.767Z,27.90
2019-04-29T05:55:31.755Z,27.67
2019-04-29T05:58:12.091Z,29.27
2019-04-29T06:00:52.579Z,27.80
2019-04-29T06:03:22.907Z,27.87
2019-04-29T06:05:53.847Z,28.37
2019-04-29T06:08:25.912Z,27.17
2019-04-29T06:10:57.247Z,26.57
2019-04-29T06:13:28.279Z,28.63
2019-04-29T06:15:59.368Z,27.57
2019-04-29T06:18:30.427Z,27.67
2019-04-29T06:21:08.790Z,27.97
2019-04-29T06:23:34.934Z,27.97
2019-04-29T06:26:06.131Z,28.40
2019-04-29T06:28:37.319Z,28.10
2019-04-29T06:31:08.531Z,27.50
2019-04-29T06:33:39.691Z,29.30
2019-04-29T06:36:10.808Z,28.53
2019-04-29T06:38:41.307Z,29.50
2019-04-29T06:41:12.290Z,28.13
2019-04-29T06:43:42.784Z,28.10
2019-04-29T06:46:13.746Z,28.10
2019-04-29T06:48:44.903Z,27.37
2019-04-29T06:51:16.095Z,27.97
2019-04-29T06:53:47.868Z,27.70
2019-04-29T06:56:19.360Z,27.27
2019-04-29T06:58:50.515Z,28.03
2019-04-29T07:01:21.536Z,27.77
2019-04-29T07:03:55.823Z,27.33
2019-04-29T07:06:24.506Z,29.20
2019-04-29T07:08:56.523Z,28.43
2019-04-29T07:11:31.684Z,28.33
2019-04-29T07:14:00.480Z,27.83
2019-04-29T07:16:32.135Z,28.07
2019-04-29T07:19:03.479Z,27.77
2019-04-29T07:21:34.603Z,28.77
2019-04-29T07:24:06.011Z,27.20
2019-04-29T07:26:36.983Z,27.97
2019-04-29T07:29:08.172Z,26.40
2019-04-29T07:31:39.373Z,27.27
2019-04-29T07:34:10.544Z,25.67
2019-04-29T07:36:41.683Z,26.77
2019-04-29T07:39:13.880Z,26.47
2019-04-29T07:41:44.294Z,26.23
2019-04-29T07:44:18.294Z,26.70
2019-04-29T07:47:00.218Z,27.20
2019-04-29T07:49:25.650Z,27.20
2019-04-29T07:51:56.731Z,27.43
2019-04-29T07:54:27.907Z,25.60
2019-04-29T07:56:59.128Z,27.13
2019-04-29T07:59:33.843Z,26.40
2019-04-29T08:02:02.459Z,26.67
2019-04-29T08:04:33.483Z,26.73
2019-04-29T08:07:04.667Z,26.60
2019-04-29T08:09:35.759Z,26.90
2019-04-29T08:12:06.822Z,26.90
2019-04-29T08:14:40.085Z,27.20
2019-04-29T08:17:11.153Z,26.57
2019-04-29T08:19:42.152Z,25.10
2019-04-29T08:22:17.845Z,27.50
2019-04-29T08:24:50.450Z,26.23
2019-04-29T08:27:18.791Z,25.07
2019-04-29T08:29:50.039Z,25.47
2019-04-29T08:32:21.315Z,24.73
2019-04-29T08:34:53.737Z,24.33
2019-04-29T08:37:25.016Z,24.70
2019-04-29T08:40:14.945Z,24.63
2019-04-29T08:42:32.474Z,24.03
2019-04-29T08:45:12.007Z,24.37
2019-04-29T08:47:44.639Z,24.53
2019-04-29T08:50:16.083Z,25.23
2019-04-29T08:52:47.868Z,26.52
2019-04-29T08:55:19.660Z,25.48
2019-04-29T08:57:51.703Z,24.98
2019-04-29T09:00:23.418Z,24.77
2019-04-29T09:02:54.634Z,24.75
2019-04-29T09:05:25.839Z,24.55
2019-04-29T09:07:59.082Z,22.70
2019-04-29T09:10:33.077Z,23.45
2019-04-29T09:13:03.217Z,23.27
2019-04-29T09:15:34.919Z,21.87
2019-04-29T09:18:06.164Z,23.50
2019-04-29T09:20:38.051Z,23.15
2019-04-29T09:23:11.688Z,21.70
2019-04-29T09:26:03.182Z,21.95
2019-04-29T09:28:35.123Z,23.05
2019-04-29T09:31:06.987Z,23.47
2019-04-29T09:33:38.833Z,21.68
2019-04-29T09:36:13.910Z,21.33
2019-04-29T09:38:43.999Z,21.30
2019-04-29T09:41:26.030Z,19.65
2019-04-29T09:44:16.823Z,20.25
2019-04-29T09:46:49.331Z,20.45
2019-04-29T09:49:20.983Z,19.87
2019-04-29T09:51:52.604Z,19.10
2019-04-29T09:54:24.178Z,18.95
2019-04-29T09:56:55.843Z,17.90
2019-04-29T09:59:52.628Z,17.90
2019-04-29T10:02:52.055Z,18.70
2019-04-29T10:05:48.480Z,19.00
2019-04-29T10:08:20.083Z,17.12
2019-04-29T10:10:51.733Z,17.35
2019-04-29T10:13:23.411Z,16.52
2019-04-29T10:16:12.575Z,17.57
2019-04-29T10:18:54.962Z,17.47
2019-04-29T10:21:25.799Z,17.07
2019-04-29T10:23:57.247Z,16.27
2019-04-29T10:26:28.876Z,16.03
2019-04-29T10:29:04.600Z,17.20
2019-04-29T10:31:36.556Z,17.17
2019-04-29T10:34:08.907Z,16.87
2019-04-29T10:36:40.628Z,17.32
2019-04-29T10:39:30.880Z,17.73
2019-04-29T10:42:03.415Z,18.73
2019-04-29T10:44:40.268Z,18.12
2019-04-29T10:47:25.118Z,17.60
2019-04-29T10:50:03.718Z,17.32
2019-04-29T10:52:38.693Z,18.67
2019-04-29T10:55:10.167Z,17.45
2019-04-29T10:57:44.949Z,18.02
2019-04-29T11:00:52.841Z,17.70
2019-04-29T11:03:25.110Z,18.73
2019-04-29T11:06:01.793Z,18.30
2019-04-29T11:08:45.479Z,18.50
2019-04-29T11:11:23.380Z,18.73
2019-04-29T11:13:50.739Z,17.95
2019-04-29T11:16:27.165Z,19.17
2019-04-29T11:19:00.198Z,19.70
2019-04-29T11:21:31.274Z,19.15
2019-04-29T11:24:12.676Z,17.67
2019-04-29T11:27:11.627Z,17.00
2019-04-29T11:29:35.873Z,17.87
2019-04-29T11:32:12.499Z,18.12
2019-04-29T11:34:59.755Z,16.25
2019-04-29T11:37:30.751Z,15.88
2019-04-29T11:40:03.295Z,15.43
2019-04-29T11:42:39.342Z,15.03
2019-04-29T11:45:09.692Z,12.98
2019-04-29T11:47:41.563Z,12.15
2019-04-29T11:50:19.596Z,11.90
2019-04-29T11:52:50.650Z,12.82
2019-04-29T11:55:23.277Z,11.90
2019-04-29T11:57:59.403Z,12.30
2019-04-29T12:00:58.600Z,13.00
2019-04-29T12:03:37.420Z,12.45
2019-04-29T12:06:10.391Z,12.53
2019-04-29T12:08:42.415Z,12.00
2019-04-29T12:11:15.039Z,12.93
2019-04-29T12:14:07.891Z,12.73
2019-04-29T12:16:43.627Z,12.35
2019-04-29T12:19:26.346Z,12.43
2019-04-29T12:21:58.010Z,11.95
2019-04-29T12:24:29.731Z,13.32
2019-04-29T12:27:01.491Z,11.78
2019-04-29T12:29:32.567Z,11.83
2019-04-29T12:32:25.014Z,11.13
2019-04-29T12:35:21.531Z,11.27
2019-04-29T12:38:10.933Z,12.27
2019-04-29T12:41:05.683Z,11.88
2019-04-29T12:43:59.643Z,12.00
2019-04-29T12:46:54.073Z,12.28
2019-04-29T12:49:25.927Z,12.60
2019-04-29T12:51:57.853Z,11.93
2019-04-29T12:54:28.859Z,12.20
2019-04-29T12:57:00.388Z,12.47
2019-04-29T12:59:35.607Z,11.38
2019-04-29T13:02:30.551Z,12.03
2019-04-29T13:05:33.583Z,11.97
2019-04-29T13:08:22.604Z,12.40
2019-04-29T13:10:58.541Z,12.73
2019-04-29T13:13:30.319Z,12.98
2019-04-29T13:16:23.919Z,12.03
2019-04-29T13:19:11.404Z,11.80
2019-04-29T13:21:33.551Z,11.57
2019-04-29T13:24:22.085Z,11.97
2019-04-29T13:26:42.529Z,11.05
2019-04-29T13:29:26.404Z,11.65
2019-04-29T13:31:45.479Z,11.97
2019-04-29T13:34:31.411Z,11.75
2019-04-29T13:37:07.443Z,12.68
2019-04-29T13:39:39.645Z,11.35
2019-04-29T13:42:15.404Z,11.28
2019-04-29T13:45:04.476Z,11.40
2019-04-29T13:47:29.304Z,11.05
2019-04-29T13:50:17.937Z,11.65
2019-04-29T13:52:42.347Z,9.68
2019-04-29T13:55:17.980Z,10.57
2019-04-29T13:57:49.674Z,10.57
2019-04-29T14:00:55.740Z,10.03
2019-04-29T14:03:31.703Z,10.30
2019-04-29T14:06:04.663Z,10.73
2019-04-29T14:08:35.979Z,10.40
2019-04-29T14:11:07.407Z,10.60
2019-04-29T14:13:43.136Z,10.13
2019-04-29T14:16:13.187Z,9.57
2019-04-29T14:18:48.292Z,9.93
2019-04-29T14:21:17.587Z,9.93
2019-04-29T14:23:48.955Z,9.57
2019-04-29T14:26:20.331Z,9.37
2019-04-29T14:28:51.675Z,9.80
2019-04-29T14:31:24.554Z,10.13
2019-04-29T14:34:07.475Z,10.37
2019-04-29T14:36:38.755Z,9.93
2019-04-29T14:39:13.080Z,9.23
2019-04-29T14:41:50.909Z,9.50
2019-04-29T14:44:42.663Z,9.40
2019-04-29T14:47:36.171Z,9.30
2019-04-29T14:50:10.591Z,8.80
2019-04-29T14:52:44.676Z,9.73
2019-04-29T14:55:15.230Z,9.73
2019-04-29T14:57:47.070Z,10.08
2019-04-29T15:00:37.151Z,10.60
2019-04-29T15:03:08.920Z,10.15
2019-04-29T15:05:40.713Z,10.63
2019-04-29T15:08:12.520Z,10.03
2019-04-29T15:10:45.849Z,9.98
2019-04-29T15:13:21.107Z,10.03
2019-04-29T15:16:14.001Z,10.98
2019-04-29T15:19:02.547Z,11.28
2019-04-29T15:21:46.656Z,10.70
2019-04-29T15:24:18.658Z,10.48
2019-04-29T15:26:50.419Z,10.85
2019-04-29T15:29:21.331Z,11.20
2019-04-29T15:31:52.743Z,11.08
2019-04-29T15:34:24.363Z,11.50
2019-04-29T15:36:56.163Z,11.88
2019-04-29T15:39:27.818Z,11.65
2019-04-29T15:42:01.703Z,11.50
2019-04-29T15:44:32.736Z,12.30
2019-04-29T15:47:04.431Z,11.50
2019-04-29T15:49:36.023Z,11.20
2019-04-29T15:52:08.699Z,11.38
2019-04-29T15:54:40.277Z,12.85
2019-04-29T15:57:15.432Z,12.45
2019-04-29T15:59:49.230Z,11.93
2019-04-29T16:02:17.106Z,12.50
2019-04-29T16:04:54.708Z,12.33
2019-04-29T16:07:46.832Z,12.07
2019-04-29T16:10:36.939Z,11.48
2019-04-29T16:13:09.422Z,12.28
2019-04-29T16:15:41.020Z,11.75
2019-04-29T16:20:46.107Z,11.15
2019-04-29T16:23:17.766Z,12.03
2019-04-29T16:25:52.223Z,12.03
2019-04-29T16:28:24.297Z,12.00
2019-04-29T16:30:54.414Z,12.10
2019-04-29T16:33:25.363Z,12.23
2019-04-29T16:35:57.543Z,11.90
2019-04-29T16:38:29.651Z,11.67
2019-04-29T16:41:19.495Z,12.67
2019-04-29T16:43:50.492Z,11.45
2019-04-29T16:46:35.727Z,12.35
2019-04-29T16:49:01.475Z,11.67
2019-04-29T16:51:32.562Z,11.53
2019-04-29T16:54:02.930Z,12.93
2019-04-29T16:56:33.837Z,12.45
2019-04-29T16:59:09.300Z,11.63
2019-04-29T17:01:38.976Z,11.50
2019-04-29T17:04:09.369Z,11.20
2019-04-29T17:06:41.520Z,11.23
2019-04-29T17:09:32.618Z,10.90
2019-04-29T17:12:03.285Z,11.77
2019-04-29T17:15:01.038Z,11.83
2019-04-29T17:17:11.116Z,12.27
2019-04-29T17:19:42.219Z,11.57
2019-04-29T17:22:25.648Z,11.23
2019-04-29T17:24:47.335Z,11.00
2019-04-29T17:27:54.862Z,11.50
2019-04-29T17:30:54.857Z,11.10
2019-04-29T17:33:35.040Z,11.10
2019-04-29T17:35:15.680Z,12.30
2019-04-29T17:36:06.979Z,11.50
2019-04-29T17:38:37.971Z,11.27
2019-04-29T17:41:11.133Z,11.17
2019-04-29T17:44:00.132Z,12.27
2019-04-29T17:46:49.299Z,11.77
2019-04-29T17:49:41.815Z,12.57
2019-04-29T17:52:19.683Z,12.23
2019-04-29T17:54:54.994Z,13.30
2019-04-29T17:57:36.438Z,12.60
2019-04-29T18:00:41.464Z,12.97
2019-04-29T18:03:21.426Z,12.60
2019-04-29T18:06:00.805Z,12.97
2019-04-29T18:08:44.758Z,13.57
2019-04-29T18:11:15.963Z,13.83
2019-04-29T18:13:47.023Z,14.20
2019-04-29T18:16:26.086Z,13.10
2019-04-29T18:19:01.928Z,12.93
2019-04-29T18:21:56.075Z,13.47
2019-04-29T18:24:46.355Z,13.67
2019-04-29T18:27:19.270Z,13.77
2019-04-29T18:29:49.647Z,13.00
2019-04-29T18:32:32.632Z,12.60
2019-04-29T18:34:52.494Z,11.57
2019-04-29T18:37:24.874Z,12.17
2019-04-29T18:39:57.832Z,12.23
2019-04-29T18:42:28.587Z,10.73
2019-04-29T18:45:05.123Z,11.13
2019-04-29T18:47:38.779Z,11.27
2019-04-29T18:50:09.264Z,11.30
2019-04-29T18:52:40.374Z,11.63
2019-04-29T18:55:12.051Z,12.27
2019-04-29T18:57:42.351Z,12.50
2019-04-29T19:00:19.284Z,12.07
2019-04-29T19:02:52.488Z,11.63
2019-04-29T19:05:38.407Z,11.97
2019-04-29T19:08:13.963Z,12.13
2019-04-29T19:10:42.314Z,12.03
2019-04-29T19:13:16.467Z,12.60
2019-04-29T19:15:48.515Z,12.30
2019-04-29T19:18:21.107Z,11.23
2019-04-29T19:20:52.910Z,10.53
2019-04-29T19:23:29.155Z,11.57
2019-04-29T19:25:56.785Z,11.03
2019-04-29T19:28:30.653Z,11.20
2019-04-29T19:31:03.303Z,10.23
2019-04-29T19:33:35.741Z,10.90
2019-04-29T19:36:08.804Z,9.77
2019-04-29T19:38:43.272Z,11.03
2019-04-29T19:41:16.473Z,10.77
2019-04-29T19:43:48.356Z,10.50
2019-04-29T19:46:24.216Z,9.80
2019-04-29T19:48:51.103Z,10.20
2019-04-29T19:51:23.171Z,9.53
2019-04-29T19:53:55.236Z,10.27
2019-04-29T19:56:27.005Z,9.53
2019-04-29T19:58:59.078Z,9.53
2019-04-29T20:01:32.653Z,10.00
2019-04-29T20:04:17.870Z,9.90
2019-04-29T20:06:48.870Z,9.27
2019-04-29T20:09:22.588Z,9.73
2019-04-29T20:11:55.507Z,10.00
2019-04-29T20:14:33.004Z,10.00
2019-04-29T20:17:19.635Z,9.57
2019-04-29T20:20:09.419Z,9.30
2019-04-29T20:22:43.346Z,8.93
2019-04-29T20:25:12.918Z,9.33
2019-04-29T20:27:45.722Z,9.23
2019-04-29T20:30:20.699Z,8.80
2019-04-29T20:32:49.535Z,9.07
2019-04-29T20:35:20.690Z,9.43
2019-04-29T20:37:55.703Z,8.60
2019-04-29T20:40:26.868Z,8.43
2019-04-29T20:42:56.688Z,8.43
2019-04-29T20:45:29.070Z,8.33
2019-04-29T20:48:00.258Z,8.50
2019-04-29T20:50:31.618Z,7.77
2019-04-29T20:53:15.653Z,8.23
2019-04-29T20:55:46.357Z,8.47
2019-04-29T20:58:17.864Z,8.13
2019-04-29T21:00:48.389Z,8.37
2019-04-29T21:03:27.673Z,8.47
2019-04-29T21:05:54.917Z,8.50
2019-04-29T21:08:25.845Z,7.97
2019-04-29T21:10:59.091Z,8.50
2019-04-29T21:13:55.867Z,7.60
2019-04-29T21:16:30.984Z,8.07
2019-04-29T21:19:08.725Z,8.43
2019-04-29T21:21:42.093Z,8.30
2019-04-29T21:24:18.658Z,7.97
2019-04-29T21:26:45.957Z,8.27
2019-04-29T21:29:19.461Z,7.97
2019-04-29T21:31:50.578Z,8.60
2019-04-29T21:34:25.339Z,7.93
2019-04-29T21:37:17.947Z,7.80
2019-04-29T21:39:58.544Z,8.20
2019-04-29T21:42:46.957Z,8.10
2019-04-29T21:45:17.505Z,7.83
2019-04-29T21:47:53.493Z,7.27
2019-04-29T21:50:21.610Z,8.47
2019-04-29T21:52:55.305Z,8.13
2019-04-29T21:55:29.233Z,8.03
2019-04-29T21:57:58.813Z,7.30
2019-04-29T22:00:30.603Z,7.60
2019-04-29T22:03:02.559Z,7.83
2019-04-29T22:05:34.986Z,6.23
2019-04-29T22:08:06.236Z,7.00
2019-04-29T22:10:37.287Z,7.30
2019-04-29T22:13:09.166Z,6.97
2019-04-29T22:15:42.481Z,6.23
2019-04-29T22:18:15.296Z,6.80
2019-04-29T22:20:45.631Z,6.93
2019-04-29T22:23:17.395Z,6.30
2019-04-29T22:25:48.527Z,6.70
2019-04-29T22:28:20.052Z,6.03
2019-04-29T22:30:54.808Z,6.00
2019-04-29T22:33:25.225Z,6.90
2019-04-29T22:35:56.636Z,6.90
2019-04-29T22:38:27.844Z,6.27
2019-04-29T22:41:00.575Z,6.40
2019-04-29T22:43:59.884Z,6.17
2019-04-29T22:46:30.886Z,5.80
2019-04-29T22:49:01.941Z,7.00
2019-04-29T22:51:33.037Z,7.10
2019-04-29T22:54:03.746Z,6.40
2019-04-29T22:56:36.052Z,6.20
2019-04-29T22:59:07.191Z,6.50
2019-04-29T23:01:42.287Z,6.00
2019-04-29T23:04:14.553Z,6.47
2019-04-29T23:06:46.608Z,6.73
2019-04-29T23:09:16.602Z,6.27
2019-04-29T23:11:47.860Z,5.97
2019-04-29T23:14:18.987Z,6.87
2019-04-29T23:16:50.139Z,6.93
2019-04-29T23:19:21.299Z,6.50
2019-04-29T23:22:15.378Z,6.77
2019-04-29T23:25:00.707Z,6.60
2019-04-29T23:27:31.687Z,6.30
2019-04-29T23:30:02.694Z,6.67
2019-04-29T23:32:35.180Z,7.10
2019-04-29T23:35:09.644Z,6.53
2019-04-29T23:37:41.011Z,7.37
2019-04-29T23:40:12.086Z,6.27
2019-04-29T23:42:47.481Z,6.73
2019-04-29T23:45:21.138Z,6.10
2019-04-29T23:47:50.337Z,6.37
2019-04-29T23:50:22.071Z,6.10
2019-04-29T23:52:53.079Z,6.47
2019-04-29T23:55:27.357Z,6.87
2019-04-29T23:58:13.480Z,6.30
